sensor_id;sensor_type;location;lat;lon;timestamp;P1;durP1;ratioP1;P2;durP2;ratioP2
38787;SDS011;24536;45.488;12.238;2023-07-08T00:00:41;7.00;;;4.30;;
38787;SDS011;24536;45.488;12.238;2023-07-08T00:03:07;6.68;;;4.20;;
38787;SDS011;24536;45.488;12.238;2023-07-08T00:05:33;7.95;;;4.35;;
38787;SDS011;24536;45.488;12.238;2023-07-08T00:08:00;7.70;;;4.50;;
38787;SDS011;24536;45.488;12.238;2023-07-08T00:10:26;6.30;;;4.40;;
38787;SDS011;24536;45.488;12.238;2023-07-08T00:12:54;7.75;;;4.22;;
38787;SDS011;24536;45.488;12.238;2023-07-08T00:15:24;6.93;;;4.00;;
38787;SDS011;24536;45.488;12.238;2023-07-08T00:17:52;5.03;;;3.78;;
38787;SDS011;24536;45.488;12.238;2023-07-08T00:20:37;5.55;;;4.10;;
38787;SDS011;24536;45.488;12.238;2023-07-08T00:23:04;7.75;;;4.35;;
38787;SDS011;24536;45.488;12.238;2023-07-08T00:25:30;6.65;;;3.83;;
38787;SDS011;24536;45.488;12.238;2023-07-08T00:27:57;6.03;;;4.25;;
38787;SDS011;24536;45.488;12.238;2023-07-08T00:30:27;5.30;;;3.92;;
38787;SDS011;24536;45.488;12.238;2023-07-08T00:32:56;5.35;;;3.90;;
38787;SDS011;24536;45.488;12.238;2023-07-08T00:38:00;6.25;;;4.15;;
38787;SDS011;24536;45.488;12.238;2023-07-08T00:40:38;6.20;;;4.57;;
38787;SDS011;24536;45.488;12.238;2023-07-08T00:43:13;5.28;;;3.88;;
38787;SDS011;24536;45.488;12.238;2023-07-08T00:45:49;6.38;;;4.30;;
38787;SDS011;24536;45.488;12.238;2023-07-08T00:51:10;6.03;;;4.05;;
38787;SDS011;24536;45.488;12.238;2023-07-08T00:53:37;4.88;;;3.90;;
38787;SDS011;24536;45.488;12.238;2023-07-08T00:56:08;5.57;;;3.85;;
38787;SDS011;24536;45.488;12.238;2023-07-08T00:58:41;8.00;;;4.00;;
38787;SDS011;24536;45.488;12.238;2023-07-08T01:01:10;5.07;;;3.83;;
38787;SDS011;24536;45.488;12.238;2023-07-08T01:03:40;6.97;;;4.35;;
38787;SDS011;24536;45.488;12.238;2023-07-08T01:06:14;4.65;;;3.78;;
38787;SDS011;24536;45.488;12.238;2023-07-08T01:08:40;6.35;;;4.03;;
38787;SDS011;24536;45.488;12.238;2023-07-08T01:11:06;6.63;;;4.28;;
38787;SDS011;24536;45.488;12.238;2023-07-08T01:13:36;5.57;;;3.97;;
38787;SDS011;24536;45.488;12.238;2023-07-08T01:16:07;6.88;;;4.53;;
38787;SDS011;24536;45.488;12.238;2023-07-08T01:18:34;8.52;;;4.18;;
38787;SDS011;24536;45.488;12.238;2023-07-08T01:21:04;4.97;;;3.92;;
38787;SDS011;24536;45.488;12.238;2023-07-08T01:23:51;6.53;;;4.22;;
38787;SDS011;24536;45.488;12.238;2023-07-08T01:26:17;6.63;;;4.22;;
38787;SDS011;24536;45.488;12.238;2023-07-08T01:28:43;7.32;;;4.82;;
38787;SDS011;24536;45.488;12.238;2023-07-08T01:31:08;4.40;;;3.35;;
38787;SDS011;24536;45.488;12.238;2023-07-08T01:33:34;5.45;;;4.00;;
38787;SDS011;24536;45.488;12.238;2023-07-08T01:36:00;6.13;;;4.30;;
38787;SDS011;24536;45.488;12.238;2023-07-08T01:38:26;6.28;;;3.83;;
38787;SDS011;24536;45.488;12.238;2023-07-08T01:40:54;6.88;;;4.30;;
38787;SDS011;24536;45.488;12.238;2023-07-08T01:43:22;7.50;;;4.22;;
38787;SDS011;24536;45.488;12.238;2023-07-08T01:45:48;6.85;;;4.70;;
38787;SDS011;24536;45.488;12.238;2023-07-08T01:48:18;6.43;;;4.50;;
38787;SDS011;24536;45.488;12.238;2023-07-08T01:51:00;6.90;;;4.45;;
38787;SDS011;24536;45.488;12.238;2023-07-08T01:53:30;5.15;;;3.90;;
38787;SDS011;24536;45.488;12.238;2023-07-08T01:55:58;6.68;;;4.57;;
38787;SDS011;24536;45.488;12.238;2023-07-08T01:58:24;6.45;;;4.78;;
38787;SDS011;24536;45.488;12.238;2023-07-08T02:00:50;6.18;;;4.25;;
38787;SDS011;24536;45.488;12.238;2023-07-08T02:03:16;5.75;;;4.20;;
38787;SDS011;24536;45.488;12.238;2023-07-08T02:05:42;6.25;;;4.15;;
38787;SDS011;24536;45.488;12.238;2023-07-08T02:08:07;7.85;;;4.68;;
38787;SDS011;24536;45.488;12.238;2023-07-08T02:10:33;4.82;;;3.92;;
38787;SDS011;24536;45.488;12.238;2023-07-08T02:12:59;5.72;;;4.18;;
38787;SDS011;24536;45.488;12.238;2023-07-08T02:15:25;8.65;;;4.55;;
38787;SDS011;24536;45.488;12.238;2023-07-08T02:17:51;6.65;;;4.20;;
38787;SDS011;24536;45.488;12.238;2023-07-08T02:20:17;6.70;;;4.10;;
38787;SDS011;24536;45.488;12.238;2023-07-08T02:22:43;7.50;;;4.38;;
38787;SDS011;24536;45.488;12.238;2023-07-08T02:25:09;7.10;;;4.40;;
38787;SDS011;24536;45.488;12.238;2023-07-08T02:27:36;6.53;;;4.68;;
38787;SDS011;24536;45.488;12.238;2023-07-08T02:30:03;5.53;;;4.30;;
38787;SDS011;24536;45.488;12.238;2023-07-08T02:32:29;6.40;;;4.45;;
38787;SDS011;24536;45.488;12.238;2023-07-08T02:34:55;6.65;;;4.22;;
38787;SDS011;24536;45.488;12.238;2023-07-08T02:37:20;5.78;;;4.50;;
38787;SDS011;24536;45.488;12.238;2023-07-08T02:39:46;7.22;;;4.70;;
38787;SDS011;24536;45.488;12.238;2023-07-08T02:42:12;7.60;;;4.45;;
38787;SDS011;24536;45.488;12.238;2023-07-08T02:44:37;7.90;;;4.93;;
38787;SDS011;24536;45.488;12.238;2023-07-08T02:47:03;6.28;;;4.68;;
38787;SDS011;24536;45.488;12.238;2023-07-08T02:49:29;6.80;;;4.50;;
38787;SDS011;24536;45.488;12.238;2023-07-08T02:51:55;7.60;;;4.57;;
38787;SDS011;24536;45.488;12.238;2023-07-08T02:54:21;7.05;;;4.07;;
38787;SDS011;24536;45.488;12.238;2023-07-08T02:56:46;6.53;;;3.65;;
38787;SDS011;24536;45.488;12.238;2023-07-08T02:59:12;5.57;;;4.43;;
38787;SDS011;24536;45.488;12.238;2023-07-08T03:01:38;6.68;;;4.18;;
38787;SDS011;24536;45.488;12.238;2023-07-08T03:04:09;6.40;;;4.15;;
38787;SDS011;24536;45.488;12.238;2023-07-08T03:06:42;6.22;;;4.65;;
38787;SDS011;24536;45.488;12.238;2023-07-08T03:09:09;6.00;;;4.55;;
38787;SDS011;24536;45.488;12.238;2023-07-08T03:11:36;5.53;;;4.05;;
38787;SDS011;24536;45.488;12.238;2023-07-08T03:14:04;6.05;;;4.55;;
38787;SDS011;24536;45.488;12.238;2023-07-08T03:16:30;6.07;;;4.38;;
38787;SDS011;24536;45.488;12.238;2023-07-08T03:18:56;7.68;;;4.55;;
38787;SDS011;24536;45.488;12.238;2023-07-08T03:21:22;8.55;;;4.38;;
38787;SDS011;24536;45.488;12.238;2023-07-08T03:23:48;7.15;;;4.32;;
38787;SDS011;24536;45.488;12.238;2023-07-08T03:26:15;6.28;;;4.32;;
38787;SDS011;24536;45.488;12.238;2023-07-08T03:28:44;6.10;;;4.15;;
38787;SDS011;24536;45.488;12.238;2023-07-08T03:31:10;6.68;;;4.20;;
38787;SDS011;24536;45.488;12.238;2023-07-08T03:33:36;5.68;;;4.10;;
38787;SDS011;24536;45.488;12.238;2023-07-08T03:36:02;6.05;;;4.63;;
38787;SDS011;24536;45.488;12.238;2023-07-08T03:38:47;6.85;;;5.00;;
38787;SDS011;24536;45.488;12.238;2023-07-08T03:43:43;7.53;;;5.03;;
38787;SDS011;24536;45.488;12.238;2023-07-08T03:46:10;6.38;;;4.40;;
38787;SDS011;24536;45.488;12.238;2023-07-08T03:48:39;8.55;;;4.80;;
38787;SDS011;24536;45.488;12.238;2023-07-08T03:51:08;6.28;;;4.18;;
38787;SDS011;24536;45.488;12.238;2023-07-08T03:53:44;9.20;;;4.85;;
38787;SDS011;24536;45.488;12.238;2023-07-08T03:56:11;7.50;;;4.65;;
38787;SDS011;24536;45.488;12.238;2023-07-08T03:58:38;7.32;;;4.75;;
38787;SDS011;24536;45.488;12.238;2023-07-08T04:01:04;8.15;;;5.07;;
38787;SDS011;24536;45.488;12.238;2023-07-08T04:03:29;7.30;;;4.97;;
38787;SDS011;24536;45.488;12.238;2023-07-08T04:05:55;8.57;;;4.85;;
38787;SDS011;24536;45.488;12.238;2023-07-08T04:08:21;5.68;;;4.28;;
38787;SDS011;24536;45.488;12.238;2023-07-08T04:10:46;6.10;;;4.55;;
38787;SDS011;24536;45.488;12.238;2023-07-08T04:13:12;8.38;;;4.72;;
38787;SDS011;24536;45.488;12.238;2023-07-08T04:15:38;6.53;;;4.95;;
38787;SDS011;24536;45.488;12.238;2023-07-08T04:18:03;7.80;;;5.05;;
38787;SDS011;24536;45.488;12.238;2023-07-08T04:20:29;9.70;;;4.82;;
38787;SDS011;24536;45.488;12.238;2023-07-08T04:22:55;7.50;;;4.88;;
38787;SDS011;24536;45.488;12.238;2023-07-08T04:25:20;6.40;;;4.65;;
38787;SDS011;24536;45.488;12.238;2023-07-08T04:27:46;9.30;;;5.15;;
38787;SDS011;24536;45.488;12.238;2023-07-08T04:30:23;6.55;;;4.50;;
38787;SDS011;24536;45.488;12.238;2023-07-08T04:32:51;6.68;;;5.05;;
38787;SDS011;24536;45.488;12.238;2023-07-08T04:35:17;7.85;;;4.85;;
38787;SDS011;24536;45.488;12.238;2023-07-08T04:37:42;7.38;;;5.07;;
38787;SDS011;24536;45.488;12.238;2023-07-08T04:40:18;6.75;;;4.85;;
38787;SDS011;24536;45.488;12.238;2023-07-08T04:42:45;7.47;;;5.20;;
38787;SDS011;24536;45.488;12.238;2023-07-08T04:45:12;7.45;;;4.70;;
38787;SDS011;24536;45.488;12.238;2023-07-08T04:47:39;7.75;;;4.47;;
38787;SDS011;24536;45.488;12.238;2023-07-08T04:50:05;7.45;;;5.07;;
38787;SDS011;24536;45.488;12.238;2023-07-08T04:52:31;7.40;;;4.85;;
38787;SDS011;24536;45.488;12.238;2023-07-08T04:54:56;6.60;;;4.88;;
38787;SDS011;24536;45.488;12.238;2023-07-08T04:57:22;10.55;;;5.15;;
38787;SDS011;24536;45.488;12.238;2023-07-08T04:59:48;9.52;;;5.43;;
38787;SDS011;24536;45.488;12.238;2023-07-08T05:02:13;6.60;;;5.05;;
38787;SDS011;24536;45.488;12.238;2023-07-08T05:04:39;7.22;;;5.07;;
38787;SDS011;24536;45.488;12.238;2023-07-08T05:07:05;7.95;;;5.70;;
38787;SDS011;24536;45.488;12.238;2023-07-08T05:09:30;9.55;;;4.90;;
38787;SDS011;24536;45.488;12.238;2023-07-08T05:11:57;6.15;;;4.53;;
38787;SDS011;24536;45.488;12.238;2023-07-08T05:14:22;6.20;;;4.85;;
38787;SDS011;24536;45.488;12.238;2023-07-08T05:16:48;7.65;;;4.93;;
38787;SDS011;24536;45.488;12.238;2023-07-08T05:19:14;4.75;;;4.05;;
38787;SDS011;24536;45.488;12.238;2023-07-08T05:21:40;8.65;;;5.15;;
38787;SDS011;24536;45.488;12.238;2023-07-08T05:24:05;6.30;;;4.60;;
38787;SDS011;24536;45.488;12.238;2023-07-08T05:26:32;10.55;;;5.60;;
38787;SDS011;24536;45.488;12.238;2023-07-08T05:28:58;6.30;;;4.63;;
38787;SDS011;24536;45.488;12.238;2023-07-08T05:31:24;7.63;;;4.82;;
38787;SDS011;24536;45.488;12.238;2023-07-08T05:33:50;12.75;;;5.20;;
38787;SDS011;24536;45.488;12.238;2023-07-08T05:36:16;8.63;;;4.90;;
38787;SDS011;24536;45.488;12.238;2023-07-08T05:38:42;6.35;;;4.63;;
38787;SDS011;24536;45.488;12.238;2023-07-08T05:41:07;9.20;;;4.82;;
38787;SDS011;24536;45.488;12.238;2023-07-08T05:43:33;8.23;;;4.80;;
38787;SDS011;24536;45.488;12.238;2023-07-08T05:45:59;6.78;;;4.20;;
38787;SDS011;24536;45.488;12.238;2023-07-08T05:48:26;6.90;;;4.18;;
38787;SDS011;24536;45.488;12.238;2023-07-08T05:50:52;9.95;;;4.60;;
38787;SDS011;24536;45.488;12.238;2023-07-08T05:53:19;8.48;;;4.90;;
38787;SDS011;24536;45.488;12.238;2023-07-08T05:55:45;7.07;;;4.43;;
38787;SDS011;24536;45.488;12.238;2023-07-08T05:58:13;6.95;;;4.95;;
38787;SDS011;24536;45.488;12.238;2023-07-08T06:00:40;6.75;;;4.50;;
38787;SDS011;24536;45.488;12.238;2023-07-08T06:03:07;8.32;;;5.00;;
38787;SDS011;24536;45.488;12.238;2023-07-08T06:05:33;5.55;;;4.43;;
38787;SDS011;24536;45.488;12.238;2023-07-08T06:07:59;7.50;;;5.00;;
38787;SDS011;24536;45.488;12.238;2023-07-08T06:10:25;6.75;;;4.95;;
38787;SDS011;24536;45.488;12.238;2023-07-08T06:12:51;9.23;;;4.80;;
38787;SDS011;24536;45.488;12.238;2023-07-08T06:15:16;6.80;;;4.50;;
38787;SDS011;24536;45.488;12.238;2023-07-08T06:17:42;8.48;;;4.82;;
38787;SDS011;24536;45.488;12.238;2023-07-08T06:20:08;7.18;;;4.60;;
38787;SDS011;24536;45.488;12.238;2023-07-08T06:22:34;6.78;;;4.70;;
38787;SDS011;24536;45.488;12.238;2023-07-08T06:24:59;5.55;;;4.25;;
38787;SDS011;24536;45.488;12.238;2023-07-08T06:27:25;6.78;;;4.72;;
38787;SDS011;24536;45.488;12.238;2023-07-08T06:29:50;6.65;;;4.57;;
38787;SDS011;24536;45.488;12.238;2023-07-08T06:32:18;5.45;;;4.28;;
38787;SDS011;24536;45.488;12.238;2023-07-08T06:34:43;6.18;;;4.75;;
38787;SDS011;24536;45.488;12.238;2023-07-08T06:37:09;5.93;;;4.20;;
38787;SDS011;24536;45.488;12.238;2023-07-08T06:39:35;6.50;;;3.95;;
38787;SDS011;24536;45.488;12.238;2023-07-08T06:42:00;6.57;;;4.47;;
38787;SDS011;24536;45.488;12.238;2023-07-08T06:44:26;5.25;;;4.00;;
38787;SDS011;24536;45.488;12.238;2023-07-08T06:46:52;7.68;;;4.10;;
38787;SDS011;24536;45.488;12.238;2023-07-08T06:49:18;6.60;;;3.88;;
38787;SDS011;24536;45.488;12.238;2023-07-08T06:51:43;6.43;;;4.20;;
38787;SDS011;24536;45.488;12.238;2023-07-08T06:54:10;5.30;;;3.70;;
38787;SDS011;24536;45.488;12.238;2023-07-08T06:56:40;6.78;;;4.18;;
38787;SDS011;24536;45.488;12.238;2023-07-08T06:59:09;6.95;;;4.00;;
38787;SDS011;24536;45.488;12.238;2023-07-08T07:01:35;6.80;;;4.47;;
38787;SDS011;24536;45.488;12.238;2023-07-08T07:04:02;6.10;;;4.75;;
38787;SDS011;24536;45.488;12.238;2023-07-08T07:06:28;5.88;;;4.20;;
38787;SDS011;24536;45.488;12.238;2023-07-08T07:08:54;6.43;;;4.10;;
38787;SDS011;24536;45.488;12.238;2023-07-08T07:11:20;6.60;;;4.13;;
38787;SDS011;24536;45.488;12.238;2023-07-08T07:13:46;5.20;;;3.97;;
38787;SDS011;24536;45.488;12.238;2023-07-08T07:16:12;7.45;;;4.25;;
38787;SDS011;24536;45.488;12.238;2023-07-08T07:18:38;7.18;;;4.75;;
38787;SDS011;24536;45.488;12.238;2023-07-08T07:21:04;5.82;;;4.25;;
38787;SDS011;24536;45.488;12.238;2023-07-08T07:23:29;6.45;;;4.10;;
38787;SDS011;24536;45.488;12.238;2023-07-08T07:25:55;4.90;;;3.78;;
38787;SDS011;24536;45.488;12.238;2023-07-08T07:28:22;4.93;;;3.70;;
38787;SDS011;24536;45.488;12.238;2023-07-08T07:30:54;7.38;;;4.43;;
38787;SDS011;24536;45.488;12.238;2023-07-08T07:33:22;4.15;;;3.47;;
38787;SDS011;24536;45.488;12.238;2023-07-08T07:35:48;6.25;;;4.28;;
38787;SDS011;24536;45.488;12.238;2023-07-08T07:38:14;4.95;;;3.40;;
38787;SDS011;24536;45.488;12.238;2023-07-08T07:40:41;7.40;;;4.20;;
38787;SDS011;24536;45.488;12.238;2023-07-08T07:43:07;4.75;;;3.85;;
38787;SDS011;24536;45.488;12.238;2023-07-08T07:45:33;8.73;;;4.28;;
38787;SDS011;24536;45.488;12.238;2023-07-08T07:47:59;6.40;;;4.50;;
38787;SDS011;24536;45.488;12.238;2023-07-08T07:50:25;5.45;;;4.18;;
38787;SDS011;24536;45.488;12.238;2023-07-08T07:52:51;5.60;;;4.47;;
38787;SDS011;24536;45.488;12.238;2023-07-08T07:55:16;5.32;;;4.32;;
38787;SDS011;24536;45.488;12.238;2023-07-08T07:57:43;7.72;;;4.35;;
38787;SDS011;24536;45.488;12.238;2023-07-08T08:00:10;5.65;;;3.92;;
38787;SDS011;24536;45.488;12.238;2023-07-08T08:02:36;4.72;;;3.88;;
38787;SDS011;24536;45.488;12.238;2023-07-08T08:05:02;5.97;;;4.05;;
38787;SDS011;24536;45.488;12.238;2023-07-08T08:07:28;7.00;;;4.22;;
38787;SDS011;24536;45.488;12.238;2023-07-08T08:09:54;5.72;;;4.25;;
38787;SDS011;24536;45.488;12.238;2023-07-08T08:12:20;5.28;;;3.92;;
38787;SDS011;24536;45.488;12.238;2023-07-08T08:14:49;35.63;;;7.43;;
38787;SDS011;24536;45.488;12.238;2023-07-08T08:17:15;7.35;;;4.43;;
38787;SDS011;24536;45.488;12.238;2023-07-08T08:19:41;5.82;;;4.07;;
38787;SDS011;24536;45.488;12.238;2023-07-08T08:22:07;5.15;;;3.67;;
38787;SDS011;24536;45.488;12.238;2023-07-08T08:24:33;5.45;;;3.22;;
38787;SDS011;24536;45.488;12.238;2023-07-08T08:26:59;4.97;;;3.75;;
38787;SDS011;24536;45.488;12.238;2023-07-08T08:29:25;9.30;;;3.78;;
38787;SDS011;24536;45.488;12.238;2023-07-08T08:31:51;5.65;;;3.90;;
38787;SDS011;24536;45.488;12.238;2023-07-08T08:34:16;4.78;;;3.42;;
38787;SDS011;24536;45.488;12.238;2023-07-08T08:36:42;4.13;;;3.72;;
38787;SDS011;24536;45.488;12.238;2023-07-08T08:39:08;6.05;;;3.58;;
38787;SDS011;24536;45.488;12.238;2023-07-08T08:41:34;5.50;;;4.00;;
38787;SDS011;24536;45.488;12.238;2023-07-08T08:44:03;4.27;;;3.20;;
38787;SDS011;24536;45.488;12.238;2023-07-08T08:46:36;7.03;;;3.97;;
38787;SDS011;24536;45.488;12.238;2023-07-08T08:51:45;11.77;;;4.25;;
38787;SDS011;24536;45.488;12.238;2023-07-08T08:54:11;12.32;;;4.43;;
38787;SDS011;24536;45.488;12.238;2023-07-08T08:59:30;6.18;;;3.67;;
38787;SDS011;24536;45.488;12.238;2023-07-08T09:01:58;4.78;;;3.67;;
38787;SDS011;24536;45.488;12.238;2023-07-08T09:04:27;5.68;;;4.20;;
38787;SDS011;24536;45.488;12.238;2023-07-08T09:07:11;9.35;;;4.75;;
38787;SDS011;24536;45.488;12.238;2023-07-08T09:12:35;6.22;;;4.50;;
38787;SDS011;24536;45.488;12.238;2023-07-08T09:15:14;5.53;;;4.25;;
38787;SDS011;24536;45.488;12.238;2023-07-08T09:17:40;6.43;;;3.70;;
38787;SDS011;24536;45.488;12.238;2023-07-08T09:22:34;6.80;;;4.55;;
38787;SDS011;24536;45.488;12.238;2023-07-08T09:27:40;5.28;;;4.40;;
38787;SDS011;24536;45.488;12.238;2023-07-08T09:30:13;5.70;;;4.28;;
38787;SDS011;24536;45.488;12.238;2023-07-08T09:32:40;5.35;;;4.40;;
38787;SDS011;24536;45.488;12.238;2023-07-08T09:35:07;7.35;;;5.00;;
38787;SDS011;24536;45.488;12.238;2023-07-08T09:37:44;8.13;;;4.47;;
38787;SDS011;24536;45.488;12.238;2023-07-08T09:40:18;7.00;;;4.72;;
38787;SDS011;24536;45.488;12.238;2023-07-08T09:42:48;5.28;;;4.25;;
38787;SDS011;24536;45.488;12.238;2023-07-08T09:45:18;6.45;;;4.75;;
38787;SDS011;24536;45.488;12.238;2023-07-08T09:47:52;10.65;;;4.80;;
38787;SDS011;24536;45.488;12.238;2023-07-08T09:52:53;7.35;;;4.25;;
38787;SDS011;24536;45.488;12.238;2023-07-08T09:55:22;5.90;;;3.85;;
38787;SDS011;24536;45.488;12.238;2023-07-08T09:57:49;6.90;;;3.90;;
38787;SDS011;24536;45.488;12.238;2023-07-08T10:00:18;7.40;;;4.15;;
38787;SDS011;24536;45.488;12.238;2023-07-08T10:02:52;10.40;;;5.40;;
38787;SDS011;24536;45.488;12.238;2023-07-08T10:05:35;5.32;;;3.38;;
38787;SDS011;24536;45.488;12.238;2023-07-08T10:08:25;6.45;;;3.53;;
38787;SDS011;24536;45.488;12.238;2023-07-08T10:11:03;6.50;;;3.97;;
38787;SDS011;24536;45.488;12.238;2023-07-08T10:13:50;6.95;;;4.22;;
38787;SDS011;24536;45.488;12.238;2023-07-08T10:18:59;6.20;;;4.38;;
38787;SDS011;24536;45.488;12.238;2023-07-08T10:21:48;7.50;;;3.45;;
38787;SDS011;24536;45.488;12.238;2023-07-08T10:27:26;4.60;;;3.60;;
38787;SDS011;24536;45.488;12.238;2023-07-08T10:35:30;6.30;;;4.47;;
38787;SDS011;24536;45.488;12.238;2023-07-08T10:43:43;6.00;;;4.60;;
38787;SDS011;24536;45.488;12.238;2023-07-08T10:46:16;5.13;;;3.47;;
38787;SDS011;24536;45.488;12.238;2023-07-08T11:00:19;4.35;;;3.50;;
38787;SDS011;24536;45.488;12.238;2023-07-08T11:03:09;6.03;;;3.35;;
38787;SDS011;24536;45.488;12.238;2023-07-08T11:05:45;8.25;;;4.45;;
38787;SDS011;24536;45.488;12.238;2023-07-08T11:08:20;3.95;;;3.55;;
38787;SDS011;24536;45.488;12.238;2023-07-08T11:10:55;7.32;;;3.20;;
38787;SDS011;24536;45.488;12.238;2023-07-08T11:13:25;4.90;;;3.25;;
38787;SDS011;24536;45.488;12.238;2023-07-08T11:16:00;4.20;;;3.80;;
38787;SDS011;24536;45.488;12.238;2023-07-08T11:18:47;4.72;;;3.45;;
38787;SDS011;24536;45.488;12.238;2023-07-08T11:21:22;4.47;;;3.80;;
38787;SDS011;24536;45.488;12.238;2023-07-08T11:23:58;5.05;;;3.70;;
38787;SDS011;24536;45.488;12.238;2023-07-08T11:26:50;6.72;;;3.35;;
38787;SDS011;24536;45.488;12.238;2023-07-08T11:29:24;6.95;;;3.75;;
38787;SDS011;24536;45.488;12.238;2023-07-08T11:32:03;4.93;;;3.90;;
38787;SDS011;24536;45.488;12.238;2023-07-08T11:34:30;5.97;;;4.35;;
38787;SDS011;24536;45.488;12.238;2023-07-08T11:36:58;4.00;;;3.25;;
38787;SDS011;24536;45.488;12.238;2023-07-08T11:39:41;4.72;;;3.83;;
38787;SDS011;24536;45.488;12.238;2023-07-08T11:44:43;4.78;;;3.97;;
38787;SDS011;24536;45.488;12.238;2023-07-08T11:47:19;5.47;;;4.03;;
38787;SDS011;24536;45.488;12.238;2023-07-08T11:50:11;6.70;;;3.95;;
38787;SDS011;24536;45.488;12.238;2023-07-08T11:52:49;6.10;;;3.88;;
38787;SDS011;24536;45.488;12.238;2023-07-08T11:55:37;5.85;;;4.15;;
38787;SDS011;24536;45.488;12.238;2023-07-08T11:58:23;5.63;;;3.85;;
38787;SDS011;24536;45.488;12.238;2023-07-08T12:03:34;5.97;;;3.80;;
38787;SDS011;24536;45.488;12.238;2023-07-08T12:06:03;5.38;;;4.10;;
38787;SDS011;24536;45.488;12.238;2023-07-08T12:08:51;4.63;;;4.03;;
38787;SDS011;24536;45.488;12.238;2023-07-08T12:11:28;4.70;;;4.18;;
38787;SDS011;24536;45.488;12.238;2023-07-08T12:13:58;4.43;;;3.80;;
38787;SDS011;24536;45.488;12.238;2023-07-08T12:16:26;6.22;;;4.00;;
38787;SDS011;24536;45.488;12.238;2023-07-08T12:18:53;5.65;;;3.35;;
38787;SDS011;24536;45.488;12.238;2023-07-08T12:21:22;4.35;;;3.65;;
38787;SDS011;24536;45.488;12.238;2023-07-08T12:23:48;5.53;;;3.63;;
38787;SDS011;24536;45.488;12.238;2023-07-08T12:26:14;7.97;;;3.88;;
38787;SDS011;24536;45.488;12.238;2023-07-08T12:28:42;4.40;;;3.35;;
38787;SDS011;24536;45.488;12.238;2023-07-08T12:33:41;4.32;;;3.33;;
38787;SDS011;24536;45.488;12.238;2023-07-08T12:36:09;5.60;;;3.53;;
38787;SDS011;24536;45.488;12.238;2023-07-08T12:38:39;4.35;;;3.35;;
38787;SDS011;24536;45.488;12.238;2023-07-08T12:41:31;6.60;;;3.40;;
38787;SDS011;24536;45.488;12.238;2023-07-08T12:43:57;4.95;;;3.17;;
38787;SDS011;24536;45.488;12.238;2023-07-08T12:46:25;4.07;;;3.40;;
38787;SDS011;24536;45.488;12.238;2023-07-08T12:48:51;3.47;;;3.08;;
38787;SDS011;24536;45.488;12.238;2023-07-08T12:51:18;4.28;;;3.08;;
38787;SDS011;24536;45.488;12.238;2023-07-08T12:53:49;4.80;;;3.60;;
38787;SDS011;24536;45.488;12.238;2023-07-08T12:56:17;4.55;;;3.35;;
38787;SDS011;24536;45.488;12.238;2023-07-08T12:58:45;5.05;;;3.70;;
38787;SDS011;24536;45.488;12.238;2023-07-08T13:01:17;8.50;;;3.63;;
38787;SDS011;24536;45.488;12.238;2023-07-08T13:03:46;5.90;;;3.72;;
38787;SDS011;24536;45.488;12.238;2023-07-08T13:06:16;4.25;;;3.58;;
38787;SDS011;24536;45.488;12.238;2023-07-08T13:08:44;3.75;;;3.15;;
38787;SDS011;24536;45.488;12.238;2023-07-08T13:11:16;5.75;;;4.13;;
38787;SDS011;24536;45.488;12.238;2023-07-08T13:13:50;4.78;;;3.65;;
38787;SDS011;24536;45.488;12.238;2023-07-08T13:16:23;3.95;;;3.50;;
38787;SDS011;24536;45.488;12.238;2023-07-08T13:18:53;4.07;;;3.67;;
38787;SDS011;24536;45.488;12.238;2023-07-08T13:21:19;5.47;;;3.00;;
38787;SDS011;24536;45.488;12.238;2023-07-08T13:23:45;4.75;;;3.75;;
38787;SDS011;24536;45.488;12.238;2023-07-08T13:26:17;3.95;;;3.38;;
38787;SDS011;24536;45.488;12.238;2023-07-08T13:28:46;4.47;;;3.42;;
38787;SDS011;24536;45.488;12.238;2023-07-08T13:33:45;4.30;;;3.90;;
38787;SDS011;24536;45.488;12.238;2023-07-08T13:36:12;3.70;;;3.30;;
38787;SDS011;24536;45.488;12.238;2023-07-08T13:38:41;4.40;;;4.00;;
38787;SDS011;24536;45.488;12.238;2023-07-08T13:41:07;4.22;;;3.83;;
38787;SDS011;24536;45.488;12.238;2023-07-08T13:43:35;6.32;;;3.75;;
38787;SDS011;24536;45.488;12.238;2023-07-08T13:46:03;6.82;;;4.13;;
38787;SDS011;24536;45.488;12.238;2023-07-08T13:53:43;4.28;;;3.40;;
38787;SDS011;24536;45.488;12.238;2023-07-08T13:58:49;7.97;;;3.67;;
38787;SDS011;24536;45.488;12.238;2023-07-08T14:01:17;5.22;;;3.15;;
38787;SDS011;24536;45.488;12.238;2023-07-08T14:03:46;9.02;;;3.60;;
38787;SDS011;24536;45.488;12.238;2023-07-08T14:06:15;6.03;;;3.33;;
38787;SDS011;24536;45.488;12.238;2023-07-08T14:08:42;5.30;;;3.47;;
38787;SDS011;24536;45.488;12.238;2023-07-08T14:11:08;3.83;;;3.13;;
38787;SDS011;24536;45.488;12.238;2023-07-08T14:13:34;4.47;;;3.28;;
38787;SDS011;24536;45.488;12.238;2023-07-08T14:16:00;4.75;;;3.63;;
38787;SDS011;24536;45.488;12.238;2023-07-08T14:20:55;4.20;;;3.42;;
38787;SDS011;24536;45.488;12.238;2023-07-08T14:23:20;7.75;;;3.30;;
38787;SDS011;24536;45.488;12.238;2023-07-08T14:25:46;4.07;;;3.22;;
38787;SDS011;24536;45.488;12.238;2023-07-08T14:28:12;5.85;;;3.45;;
38787;SDS011;24536;45.488;12.238;2023-07-08T14:30:40;5.30;;;3.25;;
38787;SDS011;24536;45.488;12.238;2023-07-08T14:33:10;4.20;;;3.22;;
38787;SDS011;24536;45.488;12.238;2023-07-08T14:35:36;5.78;;;3.45;;
38787;SDS011;24536;45.488;12.238;2023-07-08T14:38:05;4.57;;;3.45;;
38787;SDS011;24536;45.488;12.238;2023-07-08T14:40:38;4.38;;;3.38;;
38787;SDS011;24536;45.488;12.238;2023-07-08T14:43:10;4.82;;;3.08;;
38787;SDS011;24536;45.488;12.238;2023-07-08T14:45:44;4.68;;;3.08;;
38787;SDS011;24536;45.488;12.238;2023-07-08T14:48:14;7.50;;;3.53;;
38787;SDS011;24536;45.488;12.238;2023-07-08T14:50:40;3.53;;;2.80;;
38787;SDS011;24536;45.488;12.238;2023-07-08T14:53:06;5.35;;;3.35;;
38787;SDS011;24536;45.488;12.238;2023-07-08T14:55:32;4.97;;;3.50;;
38787;SDS011;24536;45.488;12.238;2023-07-08T14:58:00;4.82;;;3.00;;
38787;SDS011;24536;45.488;12.238;2023-07-08T15:00:28;4.57;;;3.20;;
38787;SDS011;24536;45.488;12.238;2023-07-08T15:02:54;4.78;;;3.40;;
38787;SDS011;24536;45.488;12.238;2023-07-08T15:05:23;3.47;;;3.15;;
38787;SDS011;24536;45.488;12.238;2023-07-08T15:07:53;4.78;;;3.20;;
38787;SDS011;24536;45.488;12.238;2023-07-08T15:10:20;3.63;;;3.00;;
38787;SDS011;24536;45.488;12.238;2023-07-08T15:12:49;5.63;;;3.33;;
38787;SDS011;24536;45.488;12.238;2023-07-08T15:15:16;6.47;;;3.13;;
38787;SDS011;24536;45.488;12.238;2023-07-08T15:17:51;5.30;;;3.13;;
38787;SDS011;24536;45.488;12.238;2023-07-08T15:20:17;5.63;;;3.13;;
38787;SDS011;24536;45.488;12.238;2023-07-08T15:22:44;5.40;;;2.63;;
38787;SDS011;24536;45.488;12.238;2023-07-08T15:25:13;3.45;;;3.00;;
38787;SDS011;24536;45.488;12.238;2023-07-08T15:27:44;3.95;;;3.30;;
38787;SDS011;24536;45.488;12.238;2023-07-08T15:30:14;4.15;;;2.80;;
38787;SDS011;24536;45.488;12.238;2023-07-08T15:32:48;5.45;;;3.00;;
38787;SDS011;24536;45.488;12.238;2023-07-08T15:35:20;4.68;;;3.13;;
38787;SDS011;24536;45.488;12.238;2023-07-08T15:37:50;5.10;;;3.28;;
38787;SDS011;24536;45.488;12.238;2023-07-08T15:40:17;3.92;;;2.90;;
38787;SDS011;24536;45.488;12.238;2023-07-08T15:42:47;4.28;;;3.53;;
38787;SDS011;24536;45.488;12.238;2023-07-08T15:45:18;4.80;;;3.75;;
38787;SDS011;24536;45.488;12.238;2023-07-08T15:47:48;5.05;;;3.85;;
38787;SDS011;24536;45.488;12.238;2023-07-08T15:50:15;8.98;;;4.38;;
38787;SDS011;24536;45.488;12.238;2023-07-08T15:52:43;3.90;;;3.50;;
38787;SDS011;24536;45.488;12.238;2023-07-08T15:55:09;4.60;;;3.22;;